الصفحة الرئيسية
METAR-TAF:

METAR-TAF

مطار :

كونمينغ, جمهورية الصين الشعبية

مطار كونمينغ جانغشوي الدولي

دائرة عرض: 25-01N, خط طول: 102-41E, ارتفاع: 1892 متر

مراقبة الطقس الحالي

تاريخ ووقت الإصدار 56 دقيقة قبل الساعة 15:00UTC
ريح 12 عقدة من الجنوب الغربي
درجة الحرارة 19°درجة مئوية
الرطوبة 46%
ضغط 1017 hPa
الرؤية 10 كم أو أكثر
الغيوم لا تقل 1500 م ولا وجود لمزنة ركامية السحاب الأسود

METAR: ZPPP 221500Z 22006MPS CAVOK 19/07 Q1017 NOSIG

زمن: 23:56 (15:56 UTC)

توقعات

تاريخ ووقت الإصدار 8ساعات و 53 دقيقة قبل الساعة 07:03UTC
التوقعات صالحة من22 الساعة 12 UTC إلى 23 الساعة 12 UTC
ريح 14 عقدة من الجنوب الغربي
الرؤية 10 كم أو أكثر
غيوم متفرقة على ارتفاع 2600 قدم

TAF: ZPPP 220703Z 2212/2312 22007MPS 9999 SCT026 TX27/2308Z TN14/2223Z

أرصاد الطقس والتوقعات من أكثر من 4000 مطار (تقارير الطقس للمطار METAR والتنبؤ بالطقس بالمطارTAF).

المحطات المتاحة هي النقط الصفراء والحمراء على الخريطة.

حرك المؤشر فوق النقطة لمعرفة اسم المحطة.

ثم انقر لمعرفة أرصاد وتوقعات الطقس.

لتغيير الخارطة: اضغط على الأزرار الخضراء مع رمز الصليب الأسود للتكبير. على الزر الأخضر مع شرطة للتصغير، أو على الأسهم الخضراء للخرائط المجاورة.


METAR-TAF: